sensor_id;sensor_type;location;lat;lon;timestamp;P1;durP1;ratioP1;P2;durP2;ratioP2
46282;SDS011;32017;43.700;11.820;2023-05-31T00:00:56;4.20;;;3.92;;
46282;SDS011;32017;43.700;11.820;2023-05-31T00:03:17;4.25;;;4.15;;
46282;SDS011;32017;43.700;11.820;2023-05-31T00:05:37;4.50;;;4.22;;
46282;SDS011;32017;43.700;11.820;2023-05-31T00:07:58;4.13;;;3.97;;
46282;SDS011;32017;43.700;11.820;2023-05-31T00:10:18;3.65;;;3.55;;
46282;SDS011;32017;43.700;11.820;2023-05-31T00:12:38;4.57;;;4.47;;
46282;SDS011;32017;43.700;11.820;2023-05-31T00:14:58;3.85;;;3.75;;
46282;SDS011;32017;43.700;11.820;2023-05-31T00:17:20;4.55;;;4.30;;
46282;SDS011;32017;43.700;11.820;2023-05-31T00:19:43;4.05;;;3.88;;
46282;SDS011;32017;43.700;11.820;2023-05-31T00:22:03;4.82;;;4.72;;
46282;SDS011;32017;43.700;11.820;2023-05-31T00:24:25;4.97;;;4.82;;
46282;SDS011;32017;43.700;11.820;2023-05-31T00:26:45;4.22;;;4.13;;
46282;SDS011;32017;43.700;11.820;2023-05-31T00:29:05;4.80;;;4.60;;
46282;SDS011;32017;43.700;11.820;2023-05-31T00:31:25;3.90;;;3.80;;
46282;SDS011;32017;43.700;11.820;2023-05-31T00:33:46;4.65;;;4.55;;
46282;SDS011;32017;43.700;11.820;2023-05-31T00:36:06;3.97;;;3.88;;
46282;SDS011;32017;43.700;11.820;2023-05-31T00:38:26;4.53;;;4.32;;
46282;SDS011;32017;43.700;11.820;2023-05-31T00:40:46;3.83;;;3.60;;
46282;SDS011;32017;43.700;11.820;2023-05-31T00:43:07;4.72;;;4.63;;
46282;SDS011;32017;43.700;11.820;2023-05-31T00:45:27;3.47;;;3.33;;
46282;SDS011;32017;43.700;11.820;2023-05-31T00:47:51;5.28;;;5.03;;
46282;SDS011;32017;43.700;11.820;2023-05-31T00:50:11;4.35;;;4.25;;
46282;SDS011;32017;43.700;11.820;2023-05-31T00:52:31;4.57;;;4.38;;
46282;SDS011;32017;43.700;11.820;2023-05-31T00:54:52;3.92;;;3.72;;
46282;SDS011;32017;43.700;11.820;2023-05-31T00:57:12;3.90;;;3.80;;
46282;SDS011;32017;43.700;11.820;2023-05-31T00:59:33;3.95;;;3.85;;
46282;SDS011;32017;43.700;11.820;2023-05-31T01:01:54;4.25;;;4.10;;
46282;SDS011;32017;43.700;11.820;2023-05-31T01:04:15;3.53;;;3.42;;
46282;SDS011;32017;43.700;11.820;2023-05-31T01:08:59;4.15;;;4.05;;
46282;SDS011;32017;43.700;11.820;2023-05-31T01:11:43;4.35;;;4.25;;
46282;SDS011;32017;43.700;11.820;2023-05-31T01:16:50;5.15;;;5.05;;
46282;SDS011;32017;43.700;11.820;2023-05-31T01:19:14;4.00;;;3.83;;
46282;SDS011;32017;43.700;11.820;2023-05-31T01:21:48;4.25;;;4.07;;
46282;SDS011;32017;43.700;11.820;2023-05-31T01:26:40;4.68;;;4.57;;
46282;SDS011;32017;43.700;11.820;2023-05-31T01:29:04;4.63;;;4.53;;
46282;SDS011;32017;43.700;11.820;2023-05-31T01:31:25;3.83;;;3.72;;
46282;SDS011;32017;43.700;11.820;2023-05-31T01:33:47;4.80;;;4.65;;
46282;SDS011;32017;43.700;11.820;2023-05-31T01:36:09;4.32;;;4.22;;
46282;SDS011;32017;43.700;11.820;2023-05-31T01:38:29;5.28;;;5.05;;
46282;SDS011;32017;43.700;11.820;2023-05-31T01:40:49;5.25;;;4.97;;
46282;SDS011;32017;43.700;11.820;2023-05-31T01:43:10;3.50;;;3.35;;
46282;SDS011;32017;43.700;11.820;2023-05-31T01:45:30;4.57;;;4.47;;
46282;SDS011;32017;43.700;11.820;2023-05-31T01:47:53;4.80;;;4.47;;
46282;SDS011;32017;43.700;11.820;2023-05-31T01:50:14;3.88;;;3.65;;
46282;SDS011;32017;43.700;11.820;2023-05-31T01:52:35;3.92;;;3.72;;
46282;SDS011;32017;43.700;11.820;2023-05-31T01:54:56;4.10;;;4.00;;
46282;SDS011;32017;43.700;11.820;2023-05-31T01:57:16;4.80;;;4.50;;
46282;SDS011;32017;43.700;11.820;2023-05-31T01:59:37;4.85;;;4.35;;
46282;SDS011;32017;43.700;11.820;2023-05-31T02:01:57;4.25;;;4.05;;
46282;SDS011;32017;43.700;11.820;2023-05-31T02:04:18;5.25;;;5.05;;
46282;SDS011;32017;43.700;11.820;2023-05-31T02:06:39;4.82;;;4.63;;
46282;SDS011;32017;43.700;11.820;2023-05-31T02:08:59;4.90;;;4.80;;
46282;SDS011;32017;43.700;11.820;2023-05-31T02:11:19;4.60;;;4.50;;
46282;SDS011;32017;43.700;11.820;2023-05-31T02:13:39;5.00;;;4.70;;
46282;SDS011;32017;43.700;11.820;2023-05-31T02:15:59;5.65;;;5.55;;
46282;SDS011;32017;43.700;11.820;2023-05-31T02:18:20;5.32;;;4.82;;
46282;SDS011;32017;43.700;11.820;2023-05-31T02:20:41;4.47;;;4.38;;
46282;SDS011;32017;43.700;11.820;2023-05-31T02:23:01;4.35;;;4.15;;
46282;SDS011;32017;43.700;11.820;2023-05-31T02:25:22;4.50;;;4.40;;
46282;SDS011;32017;43.700;11.820;2023-05-31T02:27:42;4.82;;;4.72;;
46282;SDS011;32017;43.700;11.820;2023-05-31T02:30:06;5.07;;;4.88;;
46282;SDS011;32017;43.700;11.820;2023-05-31T02:32:26;5.03;;;4.93;;
46282;SDS011;32017;43.700;11.820;2023-05-31T02:34:46;4.80;;;4.70;;
46282;SDS011;32017;43.700;11.820;2023-05-31T02:37:07;3.92;;;3.83;;
46282;SDS011;32017;43.700;11.820;2023-05-31T02:39:27;4.30;;;4.20;;
46282;SDS011;32017;43.700;11.820;2023-05-31T02:41:48;4.75;;;4.65;;
46282;SDS011;32017;43.700;11.820;2023-05-31T02:44:08;5.38;;;5.07;;
46282;SDS011;32017;43.700;11.820;2023-05-31T02:46:29;4.50;;;4.40;;
46282;SDS011;32017;43.700;11.820;2023-05-31T02:48:49;5.28;;;4.95;;
46282;SDS011;32017;43.700;11.820;2023-05-31T02:51:10;4.85;;;4.75;;
46282;SDS011;32017;43.700;11.820;2023-05-31T02:53:30;6.00;;;5.78;;
46282;SDS011;32017;43.700;11.820;2023-05-31T02:55:51;4.15;;;4.05;;
46282;SDS011;32017;43.700;11.820;2023-05-31T02:58:12;5.03;;;4.63;;
46282;SDS011;32017;43.700;11.820;2023-05-31T03:00:33;4.03;;;3.78;;
46282;SDS011;32017;43.700;11.820;2023-05-31T03:02:54;3.85;;;3.75;;
46282;SDS011;32017;43.700;11.820;2023-05-31T03:05:14;4.75;;;4.65;;
46282;SDS011;32017;43.700;11.820;2023-05-31T03:07:35;4.78;;;4.57;;
46282;SDS011;32017;43.700;11.820;2023-05-31T03:09:55;5.18;;;5.07;;
46282;SDS011;32017;43.700;11.820;2023-05-31T03:12:16;5.60;;;5.38;;
46282;SDS011;32017;43.700;11.820;2023-05-31T03:14:36;4.68;;;4.57;;
46282;SDS011;32017;43.700;11.820;2023-05-31T03:16:57;4.97;;;4.78;;
46282;SDS011;32017;43.700;11.820;2023-05-31T03:19:18;4.20;;;4.10;;
46282;SDS011;32017;43.700;11.820;2023-05-31T03:21:38;4.15;;;4.05;;
46282;SDS011;32017;43.700;11.820;2023-05-31T03:23:59;4.75;;;4.65;;
46282;SDS011;32017;43.700;11.820;2023-05-31T03:26:19;6.05;;;4.97;;
46282;SDS011;32017;43.700;11.820;2023-05-31T03:28:40;4.45;;;4.35;;
46282;SDS011;32017;43.700;11.820;2023-05-31T03:31:00;5.00;;;4.82;;
46282;SDS011;32017;43.700;11.820;2023-05-31T03:33:21;5.47;;;5.35;;
46282;SDS011;32017;43.700;11.820;2023-05-31T03:35:42;4.57;;;4.47;;
46282;SDS011;32017;43.700;11.820;2023-05-31T03:38:03;5.22;;;4.90;;
46282;SDS011;32017;43.700;11.820;2023-05-31T03:40:23;4.53;;;4.43;;
46282;SDS011;32017;43.700;11.820;2023-05-31T03:42:44;4.85;;;4.70;;
46282;SDS011;32017;43.700;11.820;2023-05-31T03:45:04;4.72;;;4.45;;
46282;SDS011;32017;43.700;11.820;2023-05-31T03:47:25;4.38;;;4.18;;
46282;SDS011;32017;43.700;11.820;2023-05-31T03:49:46;5.07;;;4.78;;
46282;SDS011;32017;43.700;11.820;2023-05-31T03:52:06;5.35;;;5.15;;
46282;SDS011;32017;43.700;11.820;2023-05-31T03:54:29;5.93;;;5.72;;
46282;SDS011;32017;43.700;11.820;2023-05-31T03:56:49;5.15;;;5.05;;
46282;SDS011;32017;43.700;11.820;2023-05-31T03:59:09;5.82;;;5.63;;
46282;SDS011;32017;43.700;11.820;2023-05-31T04:01:29;5.68;;;5.57;;
46282;SDS011;32017;43.700;11.820;2023-05-31T04:03:51;4.90;;;4.80;;
46282;SDS011;32017;43.700;11.820;2023-05-31T04:06:12;6.15;;;5.97;;
46282;SDS011;32017;43.700;11.820;2023-05-31T04:08:33;5.32;;;5.03;;
46282;SDS011;32017;43.700;11.820;2023-05-31T04:10:54;5.93;;;5.72;;
46282;SDS011;32017;43.700;11.820;2023-05-31T04:13:14;5.63;;;5.53;;
46282;SDS011;32017;43.700;11.820;2023-05-31T04:15:34;4.65;;;4.45;;
46282;SDS011;32017;43.700;11.820;2023-05-31T04:17:54;5.90;;;5.43;;
46282;SDS011;32017;43.700;11.820;2023-05-31T04:20:15;5.05;;;4.82;;
46282;SDS011;32017;43.700;11.820;2023-05-31T04:22:36;5.80;;;5.53;;
46282;SDS011;32017;43.700;11.820;2023-05-31T04:24:56;5.82;;;5.72;;
46282;SDS011;32017;43.700;11.820;2023-05-31T04:27:16;6.13;;;5.85;;
46282;SDS011;32017;43.700;11.820;2023-05-31T04:29:38;5.05;;;4.85;;
46282;SDS011;32017;43.700;11.820;2023-05-31T04:31:59;5.38;;;5.22;;
46282;SDS011;32017;43.700;11.820;2023-05-31T04:34:19;5.70;;;5.53;;
46282;SDS011;32017;43.700;11.820;2023-05-31T04:36:39;5.68;;;5.40;;
46282;SDS011;32017;43.700;11.820;2023-05-31T04:39:00;5.55;;;5.38;;
46282;SDS011;32017;43.700;11.820;2023-05-31T04:41:20;5.13;;;5.03;;
46282;SDS011;32017;43.700;11.820;2023-05-31T04:43:44;4.53;;;4.22;;
46282;SDS011;32017;43.700;11.820;2023-05-31T04:46:05;5.05;;;4.78;;
46282;SDS011;32017;43.700;11.820;2023-05-31T04:48:28;8.05;;;5.55;;
46282;SDS011;32017;43.700;11.820;2023-05-31T04:50:49;5.38;;;5.18;;
46282;SDS011;32017;43.700;11.820;2023-05-31T04:53:10;4.68;;;4.57;;
46282;SDS011;32017;43.700;11.820;2023-05-31T04:55:31;5.00;;;4.90;;
46282;SDS011;32017;43.700;11.820;2023-05-31T04:57:51;6.18;;;5.70;;
46282;SDS011;32017;43.700;11.820;2023-05-31T05:00:12;5.55;;;5.35;;
46282;SDS011;32017;43.700;11.820;2023-05-31T05:02:35;5.40;;;5.00;;
46282;SDS011;32017;43.700;11.820;2023-05-31T05:04:55;4.80;;;4.47;;
46282;SDS011;32017;43.700;11.820;2023-05-31T05:07:16;5.97;;;5.72;;
46282;SDS011;32017;43.700;11.820;2023-05-31T05:09:37;5.72;;;5.63;;
46282;SDS011;32017;43.700;11.820;2023-05-31T05:11:58;5.28;;;5.10;;
46282;SDS011;32017;43.700;11.820;2023-05-31T05:14:18;5.78;;;5.50;;
46282;SDS011;32017;43.700;11.820;2023-05-31T05:16:39;6.32;;;5.82;;
46282;SDS011;32017;43.700;11.820;2023-05-31T05:19:00;5.57;;;5.25;;
46282;SDS011;32017;43.700;11.820;2023-05-31T05:21:21;5.82;;;5.72;;
46282;SDS011;32017;43.700;11.820;2023-05-31T05:23:41;4.95;;;4.75;;
46282;SDS011;32017;43.700;11.820;2023-05-31T05:26:02;5.38;;;4.90;;
46282;SDS011;32017;43.700;11.820;2023-05-31T05:28:23;4.57;;;4.47;;
46282;SDS011;32017;43.700;11.820;2023-05-31T05:30:43;4.32;;;4.22;;
46282;SDS011;32017;43.700;11.820;2023-05-31T05:33:04;5.45;;;5.07;;
46282;SDS011;32017;43.700;11.820;2023-05-31T05:35:25;6.20;;;5.65;;
46282;SDS011;32017;43.700;11.820;2023-05-31T05:37:46;5.13;;;4.85;;
46282;SDS011;32017;43.700;11.820;2023-05-31T05:40:06;5.93;;;4.70;;
46282;SDS011;32017;43.700;11.820;2023-05-31T05:42:27;4.82;;;4.63;;
46282;SDS011;32017;43.700;11.820;2023-05-31T05:44:47;5.00;;;4.90;;
46282;SDS011;32017;43.700;11.820;2023-05-31T05:47:08;4.10;;;4.00;;
46282;SDS011;32017;43.700;11.820;2023-05-31T05:49:28;4.75;;;4.65;;
46282;SDS011;32017;43.700;11.820;2023-05-31T05:51:49;4.90;;;4.80;;
46282;SDS011;32017;43.700;11.820;2023-05-31T05:54:09;4.65;;;4.55;;
46282;SDS011;32017;43.700;11.820;2023-05-31T05:56:30;4.55;;;4.40;;
46282;SDS011;32017;43.700;11.820;2023-05-31T05:58:50;5.40;;;5.20;;
46282;SDS011;32017;43.700;11.820;2023-05-31T06:01:11;5.05;;;4.75;;
46282;SDS011;32017;43.700;11.820;2023-05-31T06:03:32;3.70;;;3.60;;
46282;SDS011;32017;43.700;11.820;2023-05-31T06:05:53;4.35;;;4.25;;
46282;SDS011;32017;43.700;11.820;2023-05-31T06:08:13;5.28;;;4.97;;
46282;SDS011;32017;43.700;11.820;2023-05-31T06:10:34;4.18;;;4.07;;
46282;SDS011;32017;43.700;11.820;2023-05-31T06:12:54;4.78;;;4.53;;
46282;SDS011;32017;43.700;11.820;2023-05-31T06:15:15;4.63;;;4.53;;
46282;SDS011;32017;43.700;11.820;2023-05-31T06:17:35;5.40;;;4.18;;
46282;SDS011;32017;43.700;11.820;2023-05-31T06:19:57;6.50;;;4.35;;
46282;SDS011;32017;43.700;11.820;2023-05-31T06:22:17;4.00;;;3.83;;
46282;SDS011;32017;43.700;11.820;2023-05-31T06:24:37;5.32;;;5.13;;
46282;SDS011;32017;43.700;11.820;2023-05-31T06:26:58;5.13;;;4.82;;
46282;SDS011;32017;43.700;11.820;2023-05-31T06:29:18;4.25;;;4.05;;
46282;SDS011;32017;43.700;11.820;2023-05-31T06:31:38;4.95;;;4.72;;
46282;SDS011;32017;43.700;11.820;2023-05-31T06:33:59;3.80;;;3.70;;
46282;SDS011;32017;43.700;11.820;2023-05-31T06:36:19;3.97;;;3.85;;
46282;SDS011;32017;43.700;11.820;2023-05-31T06:38:39;4.53;;;4.22;;
46282;SDS011;32017;43.700;11.820;2023-05-31T06:41:00;4.90;;;4.70;;
46282;SDS011;32017;43.700;11.820;2023-05-31T06:43:20;3.97;;;3.88;;
46282;SDS011;32017;43.700;11.820;2023-05-31T06:45:41;4.40;;;4.30;;
46282;SDS011;32017;43.700;11.820;2023-05-31T06:48:02;5.13;;;4.93;;
46282;SDS011;32017;43.700;11.820;2023-05-31T06:50:23;3.90;;;3.80;;
46282;SDS011;32017;43.700;11.820;2023-05-31T06:52:43;4.50;;;4.40;;
46282;SDS011;32017;43.700;11.820;2023-05-31T06:55:03;5.30;;;5.20;;
46282;SDS011;32017;43.700;11.820;2023-05-31T06:57:24;4.20;;;4.10;;
46282;SDS011;32017;43.700;11.820;2023-05-31T06:59:44;3.90;;;3.80;;
46282;SDS011;32017;43.700;11.820;2023-05-31T07:02:05;3.95;;;3.65;;
46282;SDS011;32017;43.700;11.820;2023-05-31T07:04:26;4.80;;;4.60;;
46282;SDS011;32017;43.700;11.820;2023-05-31T07:06:47;4.28;;;4.18;;
46282;SDS011;32017;43.700;11.820;2023-05-31T07:09:08;4.40;;;4.20;;
46282;SDS011;32017;43.700;11.820;2023-05-31T07:11:29;3.60;;;3.40;;
46282;SDS011;32017;43.700;11.820;2023-05-31T07:13:49;4.32;;;4.03;;
46282;SDS011;32017;43.700;11.820;2023-05-31T07:16:10;4.22;;;3.92;;
46282;SDS011;32017;43.700;11.820;2023-05-31T07:18:30;3.60;;;3.50;;
46282;SDS011;32017;43.700;11.820;2023-05-31T07:20:50;3.83;;;3.72;;
46282;SDS011;32017;43.700;11.820;2023-05-31T07:23:15;4.18;;;3.40;;
46282;SDS011;32017;43.700;11.820;2023-05-31T07:25:36;4.40;;;4.15;;
46282;SDS011;32017;43.700;11.820;2023-05-31T07:27:56;3.30;;;3.20;;
46282;SDS011;32017;43.700;11.820;2023-05-31T07:30:16;3.10;;;3.00;;
46282;SDS011;32017;43.700;11.820;2023-05-31T07:32:37;5.28;;;2.55;;
46282;SDS011;32017;43.700;11.820;2023-05-31T07:34:58;2.22;;;2.13;;
46282;SDS011;32017;43.700;11.820;2023-05-31T07:37:24;3.50;;;1.92;;
46282;SDS011;32017;43.700;11.820;2023-05-31T07:39:45;1.20;;;1.20;;
46282;SDS011;32017;43.700;11.820;2023-05-31T07:42:06;1.20;;;1.20;;
46282;SDS011;32017;43.700;11.820;2023-05-31T07:44:26;1.10;;;1.10;;
46282;SDS011;32017;43.700;11.820;2023-05-31T07:46:47;1.10;;;1.10;;
46282;SDS011;32017;43.700;11.820;2023-05-31T07:49:07;1.73;;;1.63;;
46282;SDS011;32017;43.700;11.820;2023-05-31T07:51:28;1.00;;;1.00;;
46282;SDS011;32017;43.700;11.820;2023-05-31T07:53:48;1.00;;;1.00;;
46282;SDS011;32017;43.700;11.820;2023-05-31T07:56:09;1.10;;;1.10;;
46282;SDS011;32017;43.700;11.820;2023-05-31T07:58:29;1.00;;;1.00;;
46282;SDS011;32017;43.700;11.820;2023-05-31T08:00:49;1.00;;;1.00;;
46282;SDS011;32017;43.700;11.820;2023-05-31T08:03:12;1.10;;;1.10;;
46282;SDS011;32017;43.700;11.820;2023-05-31T08:05:33;1.10;;;1.10;;
46282;SDS011;32017;43.700;11.820;2023-05-31T08:07:54;1.00;;;1.00;;
46282;SDS011;32017;43.700;11.820;2023-05-31T08:10:15;1.00;;;1.00;;
46282;SDS011;32017;43.700;11.820;2023-05-31T08:12:35;1.17;;;1.10;;
46282;SDS011;32017;43.700;11.820;2023-05-31T08:14:56;1.10;;;1.10;;
46282;SDS011;32017;43.700;11.820;2023-05-31T08:17:16;1.05;;;1.05;;
46282;SDS011;32017;43.700;11.820;2023-05-31T08:19:37;1.00;;;1.00;;
46282;SDS011;32017;43.700;11.820;2023-05-31T08:21:57;1.00;;;1.00;;
46282;SDS011;32017;43.700;11.820;2023-05-31T08:24:17;1.10;;;1.10;;
46282;SDS011;32017;43.700;11.820;2023-05-31T08:26:39;1.00;;;1.00;;
46282;SDS011;32017;43.700;11.820;2023-05-31T08:28:59;1.15;;;1.15;;
46282;SDS011;32017;43.700;11.820;2023-05-31T08:31:20;1.20;;;1.20;;
46282;SDS011;32017;43.700;11.820;2023-05-31T08:33:55;1.17;;;1.17;;
46282;SDS011;32017;43.700;11.820;2023-05-31T08:36:16;1.00;;;1.00;;
46282;SDS011;32017;43.700;11.820;2023-05-31T08:38:36;1.00;;;1.00;;
46282;SDS011;32017;43.700;11.820;2023-05-31T08:40:57;1.10;;;1.10;;
46282;SDS011;32017;43.700;11.820;2023-05-31T08:43:20;1.10;;;1.10;;
46282;SDS011;32017;43.700;11.820;2023-05-31T08:45:42;1.58;;;1.25;;
46282;SDS011;32017;43.700;11.820;2023-05-31T08:48:05;1.00;;;1.00;;
46282;SDS011;32017;43.700;11.820;2023-05-31T08:50:30;1.00;;;1.00;;
46282;SDS011;32017;43.700;11.820;2023-05-31T08:52:51;1.05;;;1.05;;
46282;SDS011;32017;43.700;11.820;2023-05-31T08:55:12;1.20;;;1.20;;
46282;SDS011;32017;43.700;11.820;2023-05-31T08:57:33;1.10;;;1.10;;
46282;SDS011;32017;43.700;11.820;2023-05-31T08:59:54;1.60;;;1.55;;
46282;SDS011;32017;43.700;11.820;2023-05-31T09:02:15;1.20;;;1.20;;
46282;SDS011;32017;43.700;11.820;2023-05-31T09:04:36;1.80;;;1.70;;
46282;SDS011;32017;43.700;11.820;2023-05-31T09:06:59;1.85;;;1.75;;
46282;SDS011;32017;43.700;11.820;2023-05-31T09:11:41;1.60;;;1.60;;
46282;SDS011;32017;43.700;11.820;2023-05-31T09:14:01;2.35;;;2.25;;
46282;SDS011;32017;43.700;11.820;2023-05-31T09:16:22;1.95;;;1.85;;
46282;SDS011;32017;43.700;11.820;2023-05-31T09:18:46;1.50;;;1.48;;
46282;SDS011;32017;43.700;11.820;2023-05-31T09:21:13;1.65;;;1.65;;
46282;SDS011;32017;43.700;11.820;2023-05-31T09:23:34;1.90;;;1.80;;
46282;SDS011;32017;43.700;11.820;2023-05-31T09:25:54;1.90;;;1.90;;
46282;SDS011;32017;43.700;11.820;2023-05-31T09:28:16;2.70;;;1.55;;
46282;SDS011;32017;43.700;11.820;2023-05-31T09:30:37;1.52;;;1.52;;
46282;SDS011;32017;43.700;11.820;2023-05-31T09:32:59;1.90;;;1.80;;
46282;SDS011;32017;43.700;11.820;2023-05-31T09:35:19;3.70;;;1.60;;
46282;SDS011;32017;43.700;11.820;2023-05-31T09:37:45;1.33;;;1.33;;
46282;SDS011;32017;43.700;11.820;2023-05-31T09:40:06;1.90;;;1.90;;
46282;SDS011;32017;43.700;11.820;2023-05-31T09:42:26;1.90;;;1.77;;
46282;SDS011;32017;43.700;11.820;2023-05-31T09:44:48;2.00;;;1.90;;
46282;SDS011;32017;43.700;11.820;2023-05-31T09:47:09;1.70;;;1.60;;
46282;SDS011;32017;43.700;11.820;2023-05-31T09:49:30;1.88;;;1.80;;
46282;SDS011;32017;43.700;11.820;2023-05-31T09:51:50;1.73;;;1.63;;
46282;SDS011;32017;43.700;11.820;2023-05-31T09:54:14;1.73;;;1.20;;
46282;SDS011;32017;43.700;11.820;2023-05-31T09:56:37;2.25;;;1.70;;
46282;SDS011;32017;43.700;11.820;2023-05-31T09:58:57;1.80;;;1.70;;
46282;SDS011;32017;43.700;11.820;2023-05-31T10:01:18;1.50;;;1.50;;
46282;SDS011;32017;43.700;11.820;2023-05-31T10:06:11;3.50;;;2.03;;
46282;SDS011;32017;43.700;11.820;2023-05-31T10:08:35;1.65;;;1.55;;
46282;SDS011;32017;43.700;11.820;2023-05-31T10:11:00;1.85;;;1.75;;
46282;SDS011;32017;43.700;11.820;2023-05-31T10:13:21;1.80;;;1.20;;
46282;SDS011;32017;43.700;11.820;2023-05-31T10:15:45;2.00;;;1.90;;
46282;SDS011;32017;43.700;11.820;2023-05-31T10:20:32;1.52;;;1.42;;
46282;SDS011;32017;43.700;11.820;2023-05-31T10:22:53;1.98;;;1.30;;
46282;SDS011;32017;43.700;11.820;2023-05-31T10:25:17;1.20;;;1.20;;
46282;SDS011;32017;43.700;11.820;2023-05-31T10:27:42;3.05;;;1.42;;
46282;SDS011;32017;43.700;11.820;2023-05-31T10:30:04;1.92;;;1.83;;
46282;SDS011;32017;43.700;11.820;2023-05-31T10:32:26;1.60;;;1.50;;
46282;SDS011;32017;43.700;11.820;2023-05-31T10:34:46;1.50;;;1.40;;
46282;SDS011;32017;43.700;11.820;2023-05-31T10:37:07;1.38;;;1.27;;
46282;SDS011;32017;43.700;11.820;2023-05-31T10:41:58;2.45;;;1.77;;
46282;SDS011;32017;43.700;11.820;2023-05-31T10:44:23;1.60;;;1.50;;
46282;SDS011;32017;43.700;11.820;2023-05-31T10:46:48;1.48;;;1.23;;
46282;SDS011;32017;43.700;11.820;2023-05-31T10:49:13;1.90;;;1.48;;
46282;SDS011;32017;43.700;11.820;2023-05-31T10:51:37;1.95;;;1.35;;
46282;SDS011;32017;43.700;11.820;2023-05-31T10:53:58;2.65;;;1.75;;
46282;SDS011;32017;43.700;11.820;2023-05-31T10:56:18;1.70;;;1.67;;
46282;SDS011;32017;43.700;11.820;2023-05-31T10:58:42;2.10;;;1.95;;
46282;SDS011;32017;43.700;11.820;2023-05-31T11:01:06;1.88;;;1.30;;
46282;SDS011;32017;43.700;11.820;2023-05-31T11:03:27;1.67;;;1.30;;
46282;SDS011;32017;43.700;11.820;2023-05-31T11:05:53;1.77;;;1.38;;
46282;SDS011;32017;43.700;11.820;2023-05-31T11:08:14;1.40;;;1.30;;
46282;SDS011;32017;43.700;11.820;2023-05-31T11:10:35;1.63;;;1.52;;
46282;SDS011;32017;43.700;11.820;2023-05-31T11:12:55;1.70;;;1.60;;
46282;SDS011;32017;43.700;11.820;2023-05-31T11:15:16;1.85;;;1.75;;
46282;SDS011;32017;43.700;11.820;2023-05-31T11:17:50;1.40;;;1.40;;
46282;SDS011;32017;43.700;11.820;2023-05-31T11:20:14;1.65;;;1.55;;
46282;SDS011;32017;43.700;11.820;2023-05-31T11:22:36;2.45;;;1.60;;
46282;SDS011;32017;43.700;11.820;2023-05-31T11:24:56;1.55;;;1.55;;
46282;SDS011;32017;43.700;11.820;2023-05-31T11:27:21;1.35;;;1.35;;
46282;SDS011;32017;43.700;11.820;2023-05-31T11:32:08;1.70;;;1.60;;
46282;SDS011;32017;43.700;11.820;2023-05-31T11:34:29;1.33;;;1.30;;
46282;SDS011;32017;43.700;11.820;2023-05-31T11:36:50;1.70;;;1.63;;
46282;SDS011;32017;43.700;11.820;2023-05-31T11:39:11;3.47;;;1.60;;
46282;SDS011;32017;43.700;11.820;2023-05-31T11:41:32;1.63;;;1.52;;
46282;SDS011;32017;43.700;11.820;2023-05-31T11:43:53;1.10;;;1.10;;
46282;SDS011;32017;43.700;11.820;2023-05-31T11:46:14;1.50;;;1.40;;
46282;SDS011;32017;43.700;11.820;2023-05-31T11:48:36;2.85;;;1.50;;
46282;SDS011;32017;43.700;11.820;2023-05-31T11:50:58;1.55;;;1.38;;
46282;SDS011;32017;43.700;11.820;2023-05-31T11:53:18;1.80;;;1.70;;
46282;SDS011;32017;43.700;11.820;2023-05-31T11:55:38;1.60;;;1.30;;
46282;SDS011;32017;43.700;11.820;2023-05-31T11:58:00;1.13;;;1.10;;
46282;SDS011;32017;43.700;11.820;2023-05-31T12:00:21;1.55;;;1.35;;
46282;SDS011;32017;43.700;11.820;2023-05-31T12:02:42;2.13;;;1.30;;
46282;SDS011;32017;43.700;11.820;2023-05-31T12:05:03;1.58;;;1.55;;
46282;SDS011;32017;43.700;11.820;2023-05-31T12:07:24;1.95;;;1.40;;
46282;SDS011;32017;43.700;11.820;2023-05-31T12:09:44;1.75;;;1.38;;
46282;SDS011;32017;43.700;11.820;2023-05-31T12:12:04;1.80;;;1.70;;
46282;SDS011;32017;43.700;11.820;2023-05-31T12:14:24;1.20;;;1.20;;
46282;SDS011;32017;43.700;11.820;2023-05-31T12:16:46;3.90;;;1.35;;
46282;SDS011;32017;43.700;11.820;2023-05-31T12:19:11;1.20;;;1.10;;
46282;SDS011;32017;43.700;11.820;2023-05-31T12:21:32;1.33;;;1.33;;
46282;SDS011;32017;43.700;11.820;2023-05-31T12:23:55;1.55;;;1.45;;
46282;SDS011;32017;43.700;11.820;2023-05-31T12:26:17;2.65;;;1.60;;
46282;SDS011;32017;43.700;11.820;2023-05-31T12:28:37;1.60;;;1.50;;
46282;SDS011;32017;43.700;11.820;2023-05-31T12:30:57;2.78;;;1.70;;
46282;SDS011;32017;43.700;11.820;2023-05-31T12:33:18;1.35;;;1.30;;
46282;SDS011;32017;43.700;11.820;2023-05-31T12:35:40;1.52;;;1.42;;
46282;SDS011;32017;43.700;11.820;2023-05-31T12:38:00;2.90;;;2.03;;
46282;SDS011;32017;43.700;11.820;2023-05-31T12:40:20;2.35;;;1.92;;
46282;SDS011;32017;43.700;11.820;2023-05-31T12:42:43;2.35;;;2.25;;
46282;SDS011;32017;43.700;11.820;2023-05-31T12:45:04;2.08;;;2.00;;
46282;SDS011;32017;43.700;11.820;2023-05-31T12:47:25;1.83;;;1.73;;
46282;SDS011;32017;43.700;11.820;2023-05-31T12:49:46;1.50;;;1.40;;
46282;SDS011;32017;43.700;11.820;2023-05-31T12:52:07;2.55;;;2.42;;
46282;SDS011;32017;43.700;11.820;2023-05-31T12:54:29;2.20;;;1.63;;
46282;SDS011;32017;43.700;11.820;2023-05-31T12:56:50;2.10;;;1.93;;
46282;SDS011;32017;43.700;11.820;2023-05-31T12:59:10;1.75;;;1.75;;
46282;SDS011;32017;43.700;11.820;2023-05-31T13:01:30;1.70;;;1.60;;
46282;SDS011;32017;43.700;11.820;2023-05-31T13:03:52;1.98;;;1.92;;
46282;SDS011;32017;43.700;11.820;2023-05-31T13:06:12;2.35;;;2.13;;
46282;SDS011;32017;43.700;11.820;2023-05-31T13:08:32;2.42;;;2.33;;
46282;SDS011;32017;43.700;11.820;2023-05-31T13:10:52;1.98;;;1.85;;
46282;SDS011;32017;43.700;11.820;2023-05-31T13:13:13;1.80;;;1.67;;
46282;SDS011;32017;43.700;11.820;2023-05-31T13:15:34;2.67;;;1.70;;
46282;SDS011;32017;43.700;11.820;2023-05-31T13:17:54;1.73;;;1.63;;
46282;SDS011;32017;43.700;11.820;2023-05-31T13:20:14;3.30;;;2.42;;
46282;SDS011;32017;43.700;11.820;2023-05-31T13:22:35;2.08;;;1.98;;
46282;SDS011;32017;43.700;11.820;2023-05-31T13:24:55;1.90;;;1.80;;
46282;SDS011;32017;43.700;11.820;2023-05-31T13:27:16;2.22;;;2.00;;
46282;SDS011;32017;43.700;11.820;2023-05-31T13:29:37;2.00;;;1.73;;
46282;SDS011;32017;43.700;11.820;2023-05-31T13:31:57;1.73;;;1.63;;
46282;SDS011;32017;43.700;11.820;2023-05-31T13:34:18;2.97;;;1.35;;
46282;SDS011;32017;43.700;11.820;2023-05-31T13:36:39;1.58;;;1.48;;
46282;SDS011;32017;43.700;11.820;2023-05-31T13:38:59;1.50;;;1.50;;
46282;SDS011;32017;43.700;11.820;2023-05-31T13:41:20;1.67;;;1.58;;
46282;SDS011;32017;43.700;11.820;2023-05-31T13:43:41;1.30;;;1.30;;
46282;SDS011;32017;43.700;11.820;2023-05-31T13:46:01;3.45;;;1.60;;
46282;SDS011;32017;43.700;11.820;2023-05-31T13:48:21;1.92;;;1.92;;
46282;SDS011;32017;43.700;11.820;2023-05-31T13:50:42;1.88;;;1.75;;
46282;SDS011;32017;43.700;11.820;2023-05-31T13:53:02;2.17;;;2.08;;
46282;SDS011;32017;43.700;11.820;2023-05-31T13:55:22;1.73;;;1.70;;
46282;SDS011;32017;43.700;11.820;2023-05-31T13:57:42;1.40;;;1.30;;
46282;SDS011;32017;43.700;11.820;2023-05-31T14:00:03;1.35;;;1.35;;
46282;SDS011;32017;43.700;11.820;2023-05-31T14:02:24;1.65;;;1.55;;
46282;SDS011;32017;43.700;11.820;2023-05-31T14:04:44;3.95;;;1.70;;
46282;SDS011;32017;43.700;11.820;2023-05-31T14:07:04;1.40;;;1.30;;
46282;SDS011;32017;43.700;11.820;2023-05-31T14:09:25;3.58;;;1.42;;
46282;SDS011;32017;43.700;11.820;2023-05-31T14:11:45;1.40;;;1.30;;
46282;SDS011;32017;43.700;11.820;2023-05-31T14:14:06;2.00;;;1.40;;
46282;SDS011;32017;43.700;11.820;2023-05-31T14:16:26;1.65;;;1.55;;